sensor_id;sensor_type;location;lat;lon;timestamp;pressure;altitude;pressure_sealevel;temperature;humidity
63439;BME280;49567;48.958;8.294;2022-08-01T00:01:35;100372.00;;;25.83;39.91
63439;BME280;49567;48.958;8.294;2022-08-01T00:04:03;100373.25;;;25.86;39.87
63439;BME280;49567;48.958;8.294;2022-08-01T00:06:28;100360.19;;;25.86;39.79
63439;BME280;49567;48.958;8.294;2022-08-01T00:08:53;100372.00;;;25.83;39.85
63439;BME280;49567;48.958;8.294;2022-08-01T00:11:19;100370.63;;;25.77;39.88
63439;BME280;49567;48.958;8.294;2022-08-01T00:13:44;100361.72;;;25.71;40.24
63439;BME280;49567;48.958;8.294;2022-08-01T00:16:09;100369.13;;;25.67;40.39
63439;BME280;49567;48.958;8.294;2022-08-01T00:18:34;100373.19;;;25.58;40.57
63439;BME280;49567;48.958;8.294;2022-08-01T00:21:02;100380.78;;;25.49;41.15
63439;BME280;49567;48.958;8.294;2022-08-01T00:23:27;100375.09;;;25.45;41.01
63439;BME280;49567;48.958;8.294;2022-08-01T00:25:52;100379.47;;;25.46;41.26
63439;BME280;49567;48.958;8.294;2022-08-01T00:28:18;100380.19;;;25.43;41.31
63439;BME280;49567;48.958;8.294;2022-08-01T00:30:43;100385.97;;;25.38;41.63
63439;BME280;49567;48.958;8.294;2022-08-01T00:33:08;100389.31;;;25.32;41.93
63439;BME280;49567;48.958;8.294;2022-08-01T00:35:33;100385.59;;;25.27;41.97
63439;BME280;49567;48.958;8.294;2022-08-01T00:37:59;100390.00;;;25.28;42.06
63439;BME280;49567;48.958;8.294;2022-08-01T00:40:24;100385.47;;;25.24;42.13
63439;BME280;49567;48.958;8.294;2022-08-01T00:42:49;100380.75;;;25.12;42.25
63439;BME280;49567;48.958;8.294;2022-08-01T00:45:18;100380.13;;;25.07;42.61
63439;BME280;49567;48.958;8.294;2022-08-01T00:47:43;100382.31;;;25.01;42.69
63439;BME280;49567;48.958;8.294;2022-08-01T00:50:09;100383.72;;;25.07;42.47
63439;BME280;49567;48.958;8.294;2022-08-01T00:52:34;100385.09;;;25.13;42.59
63439;BME280;49567;48.958;8.294;2022-08-01T00:55:00;100383.50;;;25.12;42.52
63439;BME280;49567;48.958;8.294;2022-08-01T00:57:26;100383.84;;;25.11;42.50
63439;BME280;49567;48.958;8.294;2022-08-01T00:59:52;100385.22;;;25.17;42.52
63439;BME280;49567;48.958;8.294;2022-08-01T01:02:18;100379.34;;;25.18;42.59
63439;BME280;49567;48.958;8.294;2022-08-01T01:04:43;100387.88;;;25.13;42.66
63439;BME280;49567;48.958;8.294;2022-08-01T01:09:58;100385.47;;;25.12;42.67
63439;BME280;49567;48.958;8.294;2022-08-01T01:12:41;100391.22;;;25.07;42.74
63439;BME280;49567;48.958;8.294;2022-08-01T01:15:22;100397.69;;;24.99;43.09
63439;BME280;49567;48.958;8.294;2022-08-01T01:17:57;100391.47;;;24.81;43.44
63439;BME280;49567;48.958;8.294;2022-08-01T01:20:27;100394.34;;;24.72;43.71
63439;BME280;49567;48.958;8.294;2022-08-01T01:23:06;100397.22;;;24.76;43.71
63439;BME280;49567;48.958;8.294;2022-08-01T01:25:53;100385.66;;;24.74;43.88
63439;BME280;49567;48.958;8.294;2022-08-01T01:30:53;100392.25;;;24.69;44.19
63439;BME280;49567;48.958;8.294;2022-08-01T01:33:21;100389.00;;;24.67;44.08
63439;BME280;49567;48.958;8.294;2022-08-01T01:35:52;100395.56;;;24.63;44.28
63439;BME280;49567;48.958;8.294;2022-08-01T01:38:24;100399.13;;;24.63;44.27
63439;BME280;49567;48.958;8.294;2022-08-01T01:40:52;100386.09;;;24.64;44.41
63439;BME280;49567;48.958;8.294;2022-08-01T01:43:19;100397.78;;;24.69;44.58
63439;BME280;49567;48.958;8.294;2022-08-01T01:45:47;100390.88;;;24.75;44.48
63439;BME280;49567;48.958;8.294;2022-08-01T01:48:18;100392.47;;;24.76;44.04
63439;BME280;49567;48.958;8.294;2022-08-01T01:50:46;100396.97;;;24.69;44.16
63439;BME280;49567;48.958;8.294;2022-08-01T01:53:15;100399.91;;;24.52;44.96
63439;BME280;49567;48.958;8.294;2022-08-01T01:55:45;100399.34;;;24.38;45.20
63439;BME280;49567;48.958;8.294;2022-08-01T01:58:13;100405.84;;;24.42;45.12
63439;BME280;49567;48.958;8.294;2022-08-01T02:00:41;100399.97;;;24.43;45.30
63439;BME280;49567;48.958;8.294;2022-08-01T02:03:09;100401.94;;;24.43;45.31
63439;BME280;49567;48.958;8.294;2022-08-01T02:05:36;100397.13;;;24.31;45.65
63439;BME280;49567;48.958;8.294;2022-08-01T02:08:03;100410.97;;;24.31;45.77
63439;BME280;49567;48.958;8.294;2022-08-01T02:10:31;100410.16;;;24.31;45.85
63439;BME280;49567;48.958;8.294;2022-08-01T02:12:58;100414.56;;;24.32;45.97
63439;BME280;49567;48.958;8.294;2022-08-01T02:15:25;100401.53;;;24.32;45.63
63439;BME280;49567;48.958;8.294;2022-08-01T02:17:53;100400.38;;;24.33;45.59
63439;BME280;49567;48.958;8.294;2022-08-01T02:20:20;100401.16;;;24.34;46.06
63439;BME280;49567;48.958;8.294;2022-08-01T02:22:55;100406.09;;;24.28;45.82
63439;BME280;49567;48.958;8.294;2022-08-01T02:25:25;100406.09;;;24.28;46.08
63439;BME280;49567;48.958;8.294;2022-08-01T02:28:03;100407.13;;;24.23;46.43
63439;BME280;49567;48.958;8.294;2022-08-01T02:30:34;100412.53;;;24.20;46.58
63439;BME280;49567;48.958;8.294;2022-08-01T02:33:21;100406.50;;;24.18;46.67
63439;BME280;49567;48.958;8.294;2022-08-01T02:35:50;100411.91;;;24.14;46.47
63439;BME280;49567;48.958;8.294;2022-08-01T02:38:17;100403.59;;;24.14;46.67
63439;BME280;49567;48.958;8.294;2022-08-01T02:40:45;100404.25;;;24.11;46.76
63439;BME280;49567;48.958;8.294;2022-08-01T02:43:12;100399.78;;;23.98;47.13
63439;BME280;49567;48.958;8.294;2022-08-01T02:45:43;100400.31;;;23.92;47.46
63439;BME280;49567;48.958;8.294;2022-08-01T02:48:11;100408.00;;;23.86;47.87
63439;BME280;49567;48.958;8.294;2022-08-01T02:50:38;100405.09;;;23.83;47.87
63439;BME280;49567;48.958;8.294;2022-08-01T02:53:05;100402.53;;;23.77;48.13
63439;BME280;49567;48.958;8.294;2022-08-01T02:55:32;100403.50;;;23.73;48.29
63439;BME280;49567;48.958;8.294;2022-08-01T02:57:59;100416.25;;;23.65;48.30
63439;BME280;49567;48.958;8.294;2022-08-01T03:00:26;100398.06;;;23.56;48.78
63439;BME280;49567;48.958;8.294;2022-08-01T03:02:53;100402.78;;;23.55;48.90
63439;BME280;49567;48.958;8.294;2022-08-01T03:05:20;100408.31;;;23.55;48.60
63439;BME280;49567;48.958;8.294;2022-08-01T03:07:47;100405.09;;;23.53;48.92
63439;BME280;49567;48.958;8.294;2022-08-01T03:10:13;100405.91;;;23.54;48.67
63439;BME280;49567;48.958;8.294;2022-08-01T03:12:40;100391.72;;;23.55;48.58
63439;BME280;49567;48.958;8.294;2022-08-01T03:15:06;100400.81;;;23.56;48.82
63439;BME280;49567;48.958;8.294;2022-08-01T03:17:34;100397.59;;;23.54;49.02
63439;BME280;49567;48.958;8.294;2022-08-01T03:20:02;100393.25;;;23.44;49.27
63439;BME280;49567;48.958;8.294;2022-08-01T03:22:29;100387.53;;;23.49;49.21
63439;BME280;49567;48.958;8.294;2022-08-01T03:24:56;100396.44;;;23.55;49.24
63439;BME280;49567;48.958;8.294;2022-08-01T03:27:23;100403.44;;;23.61;48.92
63439;BME280;49567;48.958;8.294;2022-08-01T03:29:51;100403.56;;;23.64;48.86
63439;BME280;49567;48.958;8.294;2022-08-01T03:32:19;100400.59;;;23.69;48.61
63439;BME280;49567;48.958;8.294;2022-08-01T03:34:45;100400.59;;;23.69;48.78
63439;BME280;49567;48.958;8.294;2022-08-01T03:37:26;100414.13;;;23.62;48.77
63439;BME280;49567;48.958;8.294;2022-08-01T03:39:58;100413.03;;;23.55;49.00
63439;BME280;49567;48.958;8.294;2022-08-01T03:42:33;100408.84;;;23.49;49.36
63439;BME280;49567;48.958;8.294;2022-08-01T03:45:04;100407.88;;;23.45;49.47
63439;BME280;49567;48.958;8.294;2022-08-01T03:47:33;100411.47;;;23.37;49.70
63439;BME280;49567;48.958;8.294;2022-08-01T03:50:01;100403.31;;;23.32;49.84
63439;BME280;49567;48.958;8.294;2022-08-01T03:52:28;100406.75;;;23.28;50.23
63439;BME280;49567;48.958;8.294;2022-08-01T03:54:55;100403.84;;;23.25;50.09
63439;BME280;49567;48.958;8.294;2022-08-01T03:57:23;100406.59;;;23.25;50.17
63439;BME280;49567;48.958;8.294;2022-08-01T03:59:49;100401.28;;;23.20;50.33
63439;BME280;49567;48.958;8.294;2022-08-01T04:02:15;100410.53;;;23.24;50.39
63439;BME280;49567;48.958;8.294;2022-08-01T04:04:41;100401.22;;;23.28;50.12
63439;BME280;49567;48.958;8.294;2022-08-01T04:07:27;100403.22;;;23.19;50.39
63439;BME280;49567;48.958;8.294;2022-08-01T04:09:53;100394.44;;;23.17;50.41
63439;BME280;49567;48.958;8.294;2022-08-01T04:12:19;100402.03;;;23.29;50.37
63439;BME280;49567;48.958;8.294;2022-08-01T04:14:44;100403.84;;;23.25;50.35
63439;BME280;49567;48.958;8.294;2022-08-01T04:17:10;100402.72;;;23.26;50.48
63439;BME280;49567;48.958;8.294;2022-08-01T04:19:35;100406.94;;;23.23;50.35
63439;BME280;49567;48.958;8.294;2022-08-01T04:22:01;100404.69;;;23.17;50.53
63439;BME280;49567;48.958;8.294;2022-08-01T04:24:28;100413.28;;;23.24;50.57
63439;BME280;49567;48.958;8.294;2022-08-01T04:26:56;100413.28;;;23.24;50.38
63439;BME280;49567;48.958;8.294;2022-08-01T04:29:23;100411.00;;;23.26;50.49
63439;BME280;49567;48.958;8.294;2022-08-01T04:31:50;100415.72;;;23.25;50.45
63439;BME280;49567;48.958;8.294;2022-08-01T04:34:21;100415.72;;;23.25;50.58
63439;BME280;49567;48.958;8.294;2022-08-01T04:36:48;100421.91;;;23.22;50.60
63439;BME280;49567;48.958;8.294;2022-08-01T04:39:16;100419.28;;;23.26;50.55
63439;BME280;49567;48.958;8.294;2022-08-01T04:41:44;100412.78;;;23.22;50.90
63439;BME280;49567;48.958;8.294;2022-08-01T04:44:12;100415.75;;;23.17;50.77
63439;BME280;49567;48.958;8.294;2022-08-01T04:46:38;100425.03;;;23.21;50.90
63439;BME280;49567;48.958;8.294;2022-08-01T04:49:09;100431.50;;;23.25;50.96
63439;BME280;49567;48.958;8.294;2022-08-01T04:51:37;100419.00;;;23.19;51.15
63439;BME280;49567;48.958;8.294;2022-08-01T04:54:14;100425.53;;;23.14;51.35
63439;BME280;49567;48.958;8.294;2022-08-01T04:56:39;100427.13;;;23.15;51.18
63439;BME280;49567;48.958;8.294;2022-08-01T04:59:04;100420.47;;;23.16;51.29
63439;BME280;49567;48.958;8.294;2022-08-01T05:01:49;100417.03;;;23.19;51.33
63439;BME280;49567;48.958;8.294;2022-08-01T05:04:15;100419.50;;;23.21;50.99
63439;BME280;49567;48.958;8.294;2022-08-01T05:06:40;100420.88;;;23.36;50.65
63439;BME280;49567;48.958;8.294;2022-08-01T05:09:06;100424.34;;;23.41;50.73
63439;BME280;49567;48.958;8.294;2022-08-01T05:11:31;100424.34;;;23.41;50.64
63439;BME280;49567;48.958;8.294;2022-08-01T05:13:56;100416.31;;;23.40;50.93
63439;BME280;49567;48.958;8.294;2022-08-01T05:16:21;100426.28;;;23.41;51.12
63439;BME280;49567;48.958;8.294;2022-08-01T05:18:47;100417.47;;;23.47;51.34
63439;BME280;49567;48.958;8.294;2022-08-01T05:21:12;100427.38;;;23.48;51.44
63439;BME280;49567;48.958;8.294;2022-08-01T05:23:37;100431.78;;;23.49;51.51
63439;BME280;49567;48.958;8.294;2022-08-01T05:26:03;100426.09;;;23.46;51.61
63439;BME280;49567;48.958;8.294;2022-08-01T05:28:29;100436.00;;;23.38;52.18
63439;BME280;49567;48.958;8.294;2022-08-01T05:30:55;100433.44;;;23.33;52.59
63439;BME280;49567;48.958;8.294;2022-08-01T05:33:20;100437.81;;;23.34;52.57
63439;BME280;49567;48.958;8.294;2022-08-01T05:35:46;100430.34;;;23.35;52.74
63439;BME280;49567;48.958;8.294;2022-08-01T05:38:12;100430.47;;;23.38;52.59
63439;BME280;49567;48.958;8.294;2022-08-01T05:40:37;100434.88;;;23.39;52.92
63439;BME280;49567;48.958;8.294;2022-08-01T05:43:02;100442.69;;;23.46;52.66
63439;BME280;49567;48.958;8.294;2022-08-01T05:45:28;100434.63;;;23.61;52.58
63439;BME280;49567;48.958;8.294;2022-08-01T05:47:53;100435.38;;;23.79;52.12
63439;BME280;49567;48.958;8.294;2022-08-01T05:50:18;100434.19;;;23.89;51.99
63439;BME280;49567;48.958;8.294;2022-08-01T05:52:44;100433.81;;;23.99;51.71
63439;BME280;49567;48.958;8.294;2022-08-01T05:55:09;100440.63;;;24.01;51.73
63439;BME280;49567;48.958;8.294;2022-08-01T05:57:34;100432.19;;;23.98;51.72
63439;BME280;49567;48.958;8.294;2022-08-01T05:59:59;100433.09;;;23.81;52.39
63439;BME280;49567;48.958;8.294;2022-08-01T06:02:25;100441.13;;;23.74;52.81
63439;BME280;49567;48.958;8.294;2022-08-01T06:04:50;100431.13;;;23.82;52.51
63439;BME280;49567;48.958;8.294;2022-08-01T06:07:15;100430.91;;;23.95;51.95
63439;BME280;49567;48.958;8.294;2022-08-01T06:09:41;100434.78;;;23.94;52.27
63439;BME280;49567;48.958;8.294;2022-08-01T06:12:06;100444.44;;;23.88;52.64
63439;BME280;49567;48.958;8.294;2022-08-01T06:14:31;100431.56;;;23.92;52.49
63439;BME280;49567;48.958;8.294;2022-08-01T06:16:57;100435.28;;;23.96;52.68
63439;BME280;49567;48.958;8.294;2022-08-01T06:19:25;100431.03;;;23.99;52.83
63439;BME280;49567;48.958;8.294;2022-08-01T06:21:51;100436.66;;;24.11;52.29
63439;BME280;49567;48.958;8.294;2022-08-01T06:24:16;100441.09;;;24.12;52.76
63439;BME280;49567;48.958;8.294;2022-08-01T06:26:41;100450.63;;;24.23;52.43
63439;BME280;49567;48.958;8.294;2022-08-01T06:29:07;100444.03;;;24.36;52.08
63439;BME280;49567;48.958;8.294;2022-08-01T06:31:32;100444.84;;;24.37;52.08
63439;BME280;49567;48.958;8.294;2022-08-01T06:33:57;100449.50;;;24.45;52.06
63439;BME280;49567;48.958;8.294;2022-08-01T06:36:23;100436.78;;;24.44;52.51
63439;BME280;49567;48.958;8.294;2022-08-01T06:38:48;100441.78;;;24.50;51.81
63439;BME280;49567;48.958;8.294;2022-08-01T06:41:13;100445.19;;;24.56;51.79
63439;BME280;49567;48.958;8.294;2022-08-01T06:43:39;100449.97;;;24.47;52.24
63439;BME280;49567;48.958;8.294;2022-08-01T06:46:04;100443.28;;;24.48;51.88
63439;BME280;49567;48.958;8.294;2022-08-01T06:48:29;100454.56;;;24.43;52.29
63439;BME280;49567;48.958;8.294;2022-08-01T06:50:55;100456.97;;;24.44;52.27
63439;BME280;49567;48.958;8.294;2022-08-01T06:53:33;100460.09;;;24.63;51.67
63439;BME280;49567;48.958;8.294;2022-08-01T06:55:59;100459.53;;;24.70;51.59
63439;BME280;49567;48.958;8.294;2022-08-01T06:58:24;100463.66;;;24.64;52.00
63439;BME280;49567;48.958;8.294;2022-08-01T07:00:49;100461.13;;;24.59;52.17
63439;BME280;49567;48.958;8.294;2022-08-01T07:03:15;100468.53;;;24.67;51.91
63439;BME280;49567;48.958;8.294;2022-08-01T07:05:40;100461.75;;;24.76;51.68
63439;BME280;49567;48.958;8.294;2022-08-01T07:08:06;100466.59;;;24.88;51.16
63439;BME280;49567;48.958;8.294;2022-08-01T07:10:31;100468.47;;;24.96;51.31
63439;BME280;49567;48.958;8.294;2022-08-01T07:12:56;100467.13;;;25.02;51.28
63439;BME280;49567;48.958;8.294;2022-08-01T07:15:22;100462.63;;;25.10;50.75
63439;BME280;49567;48.958;8.294;2022-08-01T07:17:51;100471.00;;;25.22;50.54
63439;BME280;49567;48.958;8.294;2022-08-01T07:20:17;100458.28;;;25.21;50.90
63439;BME280;49567;48.958;8.294;2022-08-01T07:22:43;100464.28;;;25.23;51.18
63439;BME280;49567;48.958;8.294;2022-08-01T07:25:08;100467.09;;;25.35;51.07
63439;BME280;49567;48.958;8.294;2022-08-01T07:27:35;100464.22;;;25.44;50.71
63439;BME280;49567;48.958;8.294;2022-08-01T07:30:00;100457.81;;;25.52;50.46
63439;BME280;49567;48.958;8.294;2022-08-01T07:32:26;100457.00;;;25.51;50.35
63439;BME280;49567;48.958;8.294;2022-08-01T07:34:51;100456.63;;;25.53;50.60
63439;BME280;49567;48.958;8.294;2022-08-01T07:37:17;100450.50;;;25.59;50.57
63439;BME280;49567;48.958;8.294;2022-08-01T07:39:42;100452.47;;;25.59;50.43
63439;BME280;49567;48.958;8.294;2022-08-01T07:42:08;100442.06;;;25.56;50.35
63439;BME280;49567;48.958;8.294;2022-08-01T07:44:33;100450.38;;;25.56;50.52
63439;BME280;49567;48.958;8.294;2022-08-01T07:46:58;100458.38;;;25.57;50.20
63439;BME280;49567;48.958;8.294;2022-08-01T07:49:24;100454.47;;;25.58;50.38
63439;BME280;49567;48.958;8.294;2022-08-01T07:51:49;100453.28;;;25.59;50.71
63439;BME280;49567;48.958;8.294;2022-08-01T07:54:14;100449.38;;;25.60;50.66
63439;BME280;49567;48.958;8.294;2022-08-01T07:56:40;100457.00;;;25.63;50.43
63439;BME280;49567;48.958;8.294;2022-08-01T07:59:05;100447.19;;;25.78;50.37
63439;BME280;49567;48.958;8.294;2022-08-01T08:01:30;100448.13;;;25.94;49.67
63439;BME280;49567;48.958;8.294;2022-08-01T08:03:56;100449.13;;;26.02;49.25
63439;BME280;49567;48.958;8.294;2022-08-01T08:06:21;100446.94;;;25.95;49.27
63439;BME280;49567;48.958;8.294;2022-08-01T08:08:47;100442.09;;;26.04;48.67
63439;BME280;49567;48.958;8.294;2022-08-01T08:11:12;100438.94;;;26.06;48.71
63439;BME280;49567;48.958;8.294;2022-08-01T08:13:37;100439.75;;;26.06;48.82
63439;BME280;49567;48.958;8.294;2022-08-01T08:16:03;100446.13;;;26.19;48.59
63439;BME280;49567;48.958;8.294;2022-08-01T08:18:28;100442.56;;;26.30;48.21
63439;BME280;49567;48.958;8.294;2022-08-01T08:20:53;100451.41;;;26.48;47.88
63439;BME280;49567;48.958;8.294;2022-08-01T08:23:19;100447.31;;;26.70;47.53
63439;BME280;49567;48.958;8.294;2022-08-01T08:26:02;100440.56;;;26.71;47.38
63439;BME280;49567;48.958;8.294;2022-08-01T08:28:28;100437.53;;;26.76;47.35
63439;BME280;49567;48.958;8.294;2022-08-01T08:30:53;100434.53;;;26.81;47.18
63439;BME280;49567;48.958;8.294;2022-08-01T08:33:20;100440.75;;;26.78;47.28
63439;BME280;49567;48.958;8.294;2022-08-01T08:35:45;100434.03;;;26.91;46.83
63439;BME280;49567;48.958;8.294;2022-08-01T08:38:10;100438.00;;;27.06;46.73
63439;BME280;49567;48.958;8.294;2022-08-01T08:40:36;100435.25;;;27.21;46.36
63439;BME280;49567;48.958;8.294;2022-08-01T08:43:03;100437.69;;;27.23;46.46
63439;BME280;49567;48.958;8.294;2022-08-01T08:45:30;100429.88;;;27.28;46.42
63439;BME280;49567;48.958;8.294;2022-08-01T08:47:56;100429.69;;;27.37;46.12
63439;BME280;49567;48.958;8.294;2022-08-01T08:50:23;100429.19;;;27.47;45.86
63439;BME280;49567;48.958;8.294;2022-08-01T08:52:49;100435.25;;;27.49;45.80
63439;BME280;49567;48.958;8.294;2022-08-01T08:55:16;100426.97;;;27.53;45.81
63439;BME280;49567;48.958;8.294;2022-08-01T08:57:44;100425.97;;;27.61;45.52
63439;BME280;49567;48.958;8.294;2022-08-01T09:00:10;100421.84;;;27.70;45.46
63439;BME280;49567;48.958;8.294;2022-08-01T09:02:43;100428.94;;;27.68;45.05
63439;BME280;49567;48.958;8.294;2022-08-01T09:05:09;100427.38;;;27.86;44.65
63439;BME280;49567;48.958;8.294;2022-08-01T09:07:34;100431.66;;;27.99;44.62
63439;BME280;49567;48.958;8.294;2022-08-01T09:09:59;100427.00;;;28.03;44.47
63439;BME280;49567;48.958;8.294;2022-08-01T09:12:25;100434.78;;;27.78;45.01
63439;BME280;49567;48.958;8.294;2022-08-01T09:14:50;100431.25;;;27.81;44.86
63439;BME280;49567;48.958;8.294;2022-08-01T09:17:18;100437.34;;;27.87;44.62
63439;BME280;49567;48.958;8.294;2022-08-01T09:19:55;100439.88;;;28.08;44.08
63439;BME280;49567;48.958;8.294;2022-08-01T09:22:23;100424.34;;;28.26;43.42
63439;BME280;49567;48.958;8.294;2022-08-01T09:25:05;100424.69;;;28.40;43.32
63439;BME280;49567;48.958;8.294;2022-08-01T09:27:32;100423.59;;;28.45;43.37
63439;BME280;49567;48.958;8.294;2022-08-01T09:30:13;100436.66;;;28.60;42.63
63439;BME280;49567;48.958;8.294;2022-08-01T09:35:30;100436.38;;;28.65;42.74
63439;BME280;49567;48.958;8.294;2022-08-01T09:38:21;100430.44;;;28.85;42.16
63439;BME280;49567;48.958;8.294;2022-08-01T09:40:57;100440.78;;;29.04;41.69
63439;BME280;49567;48.958;8.294;2022-08-01T09:43:24;100432.09;;;29.28;41.49
63439;BME280;49567;48.958;8.294;2022-08-01T09:45:50;100433.28;;;29.50;41.17
63439;BME280;49567;48.958;8.294;2022-08-01T09:48:16;100437.44;;;29.37;40.99
63439;BME280;49567;48.958;8.294;2022-08-01T09:50:44;100442.44;;;29.28;41.05
63439;BME280;49567;48.958;8.294;2022-08-01T09:53:10;100435.31;;;29.11;41.25
63439;BME280;49567;48.958;8.294;2022-08-01T09:55:40;100430.22;;;28.75;41.88
63439;BME280;49567;48.958;8.294;2022-08-01T09:58:06;100436.50;;;28.53;42.42
63439;BME280;49567;48.958;8.294;2022-08-01T10:00:33;100439.66;;;28.32;42.81
63439;BME280;49567;48.958;8.294;2022-08-01T10:03:00;100427.78;;;28.35;42.59
63439;BME280;49567;48.958;8.294;2022-08-01T10:05:43;100434.81;;;28.48;42.41
63439;BME280;49567;48.958;8.294;2022-08-01T10:08:09;100428.72;;;28.43;42.92
63439;BME280;49567;48.958;8.294;2022-08-01T10:10:35;100434.53;;;28.92;42.21
63439;BME280;49567;48.958;8.294;2022-08-01T10:13:01;100425.56;;;29.21;41.24
63439;BME280;49567;48.958;8.294;2022-08-01T10:15:27;100432.16;;;29.13;41.68
63439;BME280;49567;48.958;8.294;2022-08-01T10:17:54;100428.56;;;29.12;41.56
63439;BME280;49567;48.958;8.294;2022-08-01T10:20:23;100426.38;;;29.44;41.53
63439;BME280;49567;48.958;8.294;2022-08-01T10:22:49;100411.66;;;31.52;37.15
63439;BME280;49567;48.958;8.294;2022-08-01T10:25:18;100413.56;;;31.04;37.86
63439;BME280;49567;48.958;8.294;2022-08-01T10:27:48;100410.78;;;30.15;39.17
63439;BME280;49567;48.958;8.294;2022-08-01T10:30:14;100402.72;;;29.61;40.29
63439;BME280;49567;48.958;8.294;2022-08-01T10:32:40;100409.75;;;29.28;40.98
63439;BME280;49567;48.958;8.294;2022-08-01T10:35:08;100409.41;;;29.11;41.22
63439;BME280;49567;48.958;8.294;2022-08-01T10:37:34;100411.59;;;29.21;41.42
63439;BME280;49567;48.958;8.294;2022-08-01T10:40:01;100401.25;;;29.90;39.99
63439;BME280;49567;48.958;8.294;2022-08-01T10:42:27;100415.63;;;30.77;38.10
63439;BME280;49567;48.958;8.294;2022-08-01T10:44:55;100402.09;;;30.23;39.10
63439;BME280;49567;48.958;8.294;2022-08-01T10:47:25;100405.44;;;31.76;36.56
63439;BME280;49567;48.958;8.294;2022-08-01T10:52:21;100402.38;;;35.46;30.68
63439;BME280;49567;48.958;8.294;2022-08-01T10:54:46;100404.34;;;34.90;30.72
63439;BME280;49567;48.958;8.294;2022-08-01T10:57:13;100403.16;;;35.50;30.14
63439;BME280;49567;48.958;8.294;2022-08-01T10:59:51;100399.13;;;37.00;27.55
63439;BME280;49567;48.958;8.294;2022-08-01T11:02:31;100399.72;;;37.88;26.48
63439;BME280;49567;48.958;8.294;2022-08-01T11:07:48;100394.06;;;36.17;28.45
63439;BME280;49567;48.958;8.294;2022-08-01T11:10:24;100394.81;;;35.32;29.49
63439;BME280;49567;48.958;8.294;2022-08-01T11:12:49;100402.56;;;34.06;30.96
63439;BME280;49567;48.958;8.294;2022-08-01T11:17:44;100398.13;;;33.02;32.63
63439;BME280;49567;48.958;8.294;2022-08-01T11:30:51;100384.94;;;37.30;26.22
63439;BME280;49567;48.958;8.294;2022-08-01T11:38:39;100374.81;;;36.76;27.15
63439;BME280;49567;48.958;8.294;2022-08-01T11:41:12;100372.28;;;38.08;25.39
63439;BME280;49567;48.958;8.294;2022-08-01T11:43:57;100366.94;;;37.90;25.71
63439;BME280;49567;48.958;8.294;2022-08-01T11:52:27;100363.56;;;36.08;27.82
63439;BME280;49567;48.958;8.294;2022-08-01T11:55:07;100364.41;;;36.69;27.55
63439;BME280;49567;48.958;8.294;2022-08-01T11:57:34;100362.50;;;37.43;26.73
63439;BME280;49567;48.958;8.294;2022-08-01T12:00:12;100366.69;;;37.81;26.09
63439;BME280;49567;48.958;8.294;2022-08-01T12:02:39;100366.69;;;38.24;25.23
63439;BME280;49567;48.958;8.294;2022-08-01T12:05:15;100364.47;;;38.55;24.45
63439;BME280;49567;48.958;8.294;2022-08-01T12:07:43;100367.94;;;38.82;24.04
63439;BME280;49567;48.958;8.294;2022-08-01T12:10:18;100359.72;;;38.68;24.03
63439;BME280;49567;48.958;8.294;2022-08-01T12:13:00;100357.59;;;38.92;23.78
63439;BME280;49567;48.958;8.294;2022-08-01T12:15:35;100350.00;;;37.67;24.55
63439;BME280;49567;48.958;8.294;2022-08-01T12:18:02;100347.22;;;37.40;25.59
63439;BME280;49567;48.958;8.294;2022-08-01T12:20:31;100346.16;;;38.01;24.88
63439;BME280;49567;48.958;8.294;2022-08-01T12:23:00;100353.00;;;38.62;23.86
63439;BME280;49567;48.958;8.294;2022-08-01T12:25:28;100341.03;;;38.90;23.38
63439;BME280;49567;48.958;8.294;2022-08-01T12:27:54;100350.63;;;38.77;23.45
63439;BME280;49567;48.958;8.294;2022-08-01T12:30:23;100343.97;;;37.65;24.58
63439;BME280;49567;48.958;8.294;2022-08-01T12:32:50;100355.38;;;36.81;25.46
63439;BME280;49567;48.958;8.294;2022-08-01T12:35:17;100352.91;;;37.14;24.90
63439;BME280;49567;48.958;8.294;2022-08-01T12:37:48;100345.09;;;36.68;25.54
63439;BME280;49567;48.958;8.294;2022-08-01T12:40:18;100346.22;;;37.27;24.94
63439;BME280;49567;48.958;8.294;2022-08-01T12:42:47;100341.88;;;37.92;24.11
63439;BME280;49567;48.958;8.294;2022-08-01T12:45:15;100348.91;;;38.24;23.41
63439;BME280;49567;48.958;8.294;2022-08-01T12:47:42;100347.41;;;38.95;22.96
63439;BME280;49567;48.958;8.294;2022-08-01T12:50:11;100333.91;;;39.34;22.38
63439;BME280;49567;48.958;8.294;2022-08-01T12:52:38;100334.06;;;39.43;21.83
63439;BME280;49567;48.958;8.294;2022-08-01T12:55:12;100333.69;;;38.93;22.29
63439;BME280;49567;48.958;8.294;2022-08-01T12:57:40;100349.38;;;37.56;23.46
63439;BME280;49567;48.958;8.294;2022-08-01T13:02:33;100330.44;;;37.76;23.17
63439;BME280;49567;48.958;8.294;2022-08-01T13:04:59;100336.84;;;37.57;23.35
63439;BME280;49567;48.958;8.294;2022-08-01T13:10:07;100332.28;;;37.40;24.31
63439;BME280;49567;48.958;8.294;2022-08-01T13:12:33;100335.56;;;37.81;23.69
63439;BME280;49567;48.958;8.294;2022-08-01T13:14:59;100329.28;;;37.74;23.91
63439;BME280;49567;48.958;8.294;2022-08-01T13:17:34;100324.31;;;38.40;22.83
63439;BME280;49567;48.958;8.294;2022-08-01T13:20:05;100321.19;;;39.07;22.13
63439;BME280;49567;48.958;8.294;2022-08-01T13:22:35;100324.59;;;39.34;21.73
63439;BME280;49567;48.958;8.294;2022-08-01T13:25:14;100335.19;;;38.81;22.21
63439;BME280;49567;48.958;8.294;2022-08-01T13:27:40;100330.56;;;38.32;22.77
63439;BME280;49567;48.958;8.294;2022-08-01T13:30:19;100325.78;;;38.29;22.83
63439;BME280;49567;48.958;8.294;2022-08-01T13:32:57;100314.53;;;38.81;22.25
63439;BME280;49567;48.958;8.294;2022-08-01T13:35:23;100328.69;;;38.45;22.49
63439;BME280;49567;48.958;8.294;2022-08-01T13:37:48;100328.16;;;37.68;23.01